Time;durP1;ratioP1;P1;durP2;ratioP2;P2;SDS_P1;SDS_P2;PMS_P1;PMS_P2;Temp;Humidity;BMP_temperature;BMP_pressure;BME280_temperature;BME280_humidity;BME280_pressure;Samples;Min_cycle;Max_cycle;Signal;HPM_P1;HPM_P2
2023/12/27 00:00:47;;;;;;;9.33;1.80;;;5.30;99.90;;;;;;4936721;28;20913;-54
2023/12/27 00:03:12;;;;;;;3.73;0.90;;;5.30;99.90;;;;;;4958900;28;20206;-58
2023/12/27 00:05:38;;;;;;;10.93;1.40;;;5.20;99.90;;;;;;4938481;28;20586;-54
2023/12/27 00:08:04;;;;;;;6.83;1.90;;;5.20;99.90;;;;;;4956045;28;20290;-54
2023/12/27 00:10:29;;;;;;;5.30;1.40;;;5.10;99.90;;;;;;4943715;28;20224;-54
2023/12/27 00:12:55;;;;;;;6.37;1.70;;;5.10;99.90;;;;;;4959001;28;20997;-55
2023/12/27 00:15:20;;;;;;;6.50;1.83;;;5.00;99.90;;;;;;4955187;28;20218;-65
2023/12/27 00:17:46;;;;;;;7.67;1.87;;;5.00;99.90;;;;;;4936462;28;20202;-56
2023/12/27 00:20:11;;;;;;;7.10;1.80;;;5.00;99.90;;;;;;4942503;28;20875;-54
2023/12/27 00:22:37;;;;;;;7.83;1.50;;;5.00;99.90;;;;;;4952843;28;20220;-57
2023/12/27 00:25:03;;;;;;;6.03;1.47;;;4.90;99.90;;;;;;4938461;28;20487;-54
2023/12/27 00:27:28;;;;;;;7.40;1.87;;;4.90;99.90;;;;;;4942912;28;20723;-55
2023/12/27 00:29:54;;;;;;;8.90;1.33;;;4.80;99.90;;;;;;4949553;28;20252;-53
2023/12/27 00:32:19;;;;;;;4.03;1.10;;;4.90;99.90;;;;;;4944790;28;20967;-55
2023/12/27 00:34:48;;;;;;;4.63;1.60;;;5.00;99.90;;;;;;4948047;28;20231;-55
2023/12/27 00:37:13;;;;;;;3.87;2.07;;;5.10;99.90;;;;;;4942049;28;20283;-54
2023/12/27 00:39:39;;;;;;;7.90;1.53;;;5.00;99.90;;;;;;4938571;28;20207;-54
2023/12/27 00:42:04;;;;;;;5.63;1.20;;;4.90;99.90;;;;;;4935971;28;20206;-55
2023/12/27 00:44:30;;;;;;;7.43;1.30;;;4.90;99.90;;;;;;4940596;28;20315;-54
2023/12/27 00:46:56;;;;;;;11.60;1.93;;;5.00;99.90;;;;;;4947132;28;20240;-55
2023/12/27 00:49:22;;;;;;;4.87;1.70;;;4.90;99.90;;;;;;4941513;28;20200;-54
2023/12/27 00:51:47;;;;;;;2.83;1.40;;;4.80;99.90;;;;;;4933093;28;20205;-55
2023/12/27 00:54:13;;;;;;;4.93;1.67;;;4.90;99.90;;;;;;4953605;28;20669;-56
2023/12/27 00:56:39;;;;;;;4.30;1.37;;;5.10;99.90;;;;;;4956132;28;20206;-56
2023/12/27 00:59:06;;;;;;;6.33;1.50;;;4.80;99.90;;;;;;4938040;28;20688;-54
2023/12/27 01:01:31;;;;;;;4.73;1.73;;;4.80;99.90;;;;;;4940444;28;20204;-53
2023/12/27 01:03:57;;;;;;;5.67;1.40;;;4.70;99.90;;;;;;4942515;28;20197;-56
2023/12/27 01:06:23;;;;;;;6.00;1.80;;;4.90;99.90;;;;;;4949977;28;20245;-55
2023/12/27 01:08:48;;;;;;;4.33;1.53;;;4.80;99.90;;;;;;4938604;28;20202;-54
2023/12/27 01:11:14;;;;;;;8.47;1.53;;;4.80;99.90;;;;;;4939671;28;20206;-54
2023/12/27 01:13:39;;;;;;;10.63;1.80;;;5.00;99.90;;;;;;4969682;28;20341;-55
2023/12/27 01:16:05;;;;;;;6.90;2.03;;;5.10;99.90;;;;;;4957433;28;20232;-53
2023/12/27 01:18:31;;;;;;;4.13;1.53;;;5.10;99.90;;;;;;4953551;28;20339;-56
2023/12/27 01:20:56;;;;;;;7.60;1.47;;;5.10;99.90;;;;;;4955986;28;20208;-54
2023/12/27 01:23:22;;;;;;;7.87;1.90;;;5.10;99.90;;;;;;4938033;28;20226;-55
2023/12/27 01:25:47;;;;;;;5.70;2.33;;;5.10;99.90;;;;;;4943154;28;20213;-65
2023/12/27 01:28:13;;;;;;;5.83;1.43;;;5.00;99.90;;;;;;4938952;28;20241;-63
2023/12/27 01:30:38;;;;;;;2.50;2.30;;;4.80;99.90;;;;;;4939014;28;20190;-54
2023/12/27 01:33:04;;;;;;;8.03;1.60;;;4.70;99.90;;;;;;4954651;28;20206;-54
2023/12/27 01:35:29;;;;;;;4.67;1.70;;;4.90;99.90;;;;;;4953375;28;20202;-55
2023/12/27 01:37:55;;;;;;;4.30;1.60;;;4.90;99.90;;;;;;4943683;28;20270;-54
2023/12/27 01:40:20;;;;;;;2.87;1.37;;;4.70;99.90;;;;;;4943508;28;20225;-53
2023/12/27 01:42:46;;;;;;;6.67;2.27;;;4.80;99.90;;;;;;4940840;28;20800;-54
2023/12/27 01:45:11;;;;;;;5.87;1.60;;;4.70;99.90;;;;;;4956896;28;20567;-55
2023/12/27 01:47:37;;;;;;;6.27;1.80;;;4.60;99.90;;;;;;4939372;28;20225;-54
2023/12/27 01:50:09;;;;;;;9.07;1.60;;;4.50;99.90;;;;;;4934440;28;20207;-54
2023/12/27 01:52:35;;;;;;;9.03;1.83;;;4.50;99.90;;;;;;4964795;28;20255;-54
2023/12/27 01:55:01;;;;;;;4.50;1.40;;;4.60;99.90;;;;;;4952751;28;20591;-55
2023/12/27 01:57:26;;;;;;;5.83;1.67;;;4.40;99.90;;;;;;4937505;28;20198;-55
2023/12/27 01:59:52;;;;;;;9.67;1.50;;;4.30;99.90;;;;;;4951568;28;20728;-55
2023/12/27 02:02:18;;;;;;;11.20;2.10;;;4.30;99.90;;;;;;4960597;28;20207;-55
2023/12/27 02:04:44;;;;;;;7.57;1.67;;;4.30;99.90;;;;;;4956347;28;20201;-54
2023/12/27 02:07:10;;;;;;;6.57;1.70;;;4.30;99.90;;;;;;4967712;28;20222;-54
2023/12/27 02:09:36;;;;;;;4.83;1.30;;;4.30;99.90;;;;;;4948714;28;20206;-54
2023/12/27 02:12:01;;;;;;;6.40;1.90;;;4.30;99.90;;;;;;4945153;28;20259;-55
2023/12/27 02:14:27;;;;;;;4.57;2.27;;;4.20;99.90;;;;;;4954550;28;20281;-54
2023/12/27 02:16:52;;;;;;;6.83;1.43;;;4.30;99.90;;;;;;4939547;28;20214;-54
2023/12/27 02:19:21;;;;;;;3.53;1.37;;;4.30;99.90;;;;;;4940017;28;20635;-54
2023/12/27 02:21:49;;;;;;;5.07;1.77;;;4.40;99.90;;;;;;4949239;28;20425;-54
2023/12/27 02:24:16;;;;;;;3.43;1.90;;;4.30;99.90;;;;;;4945683;28;20193;-54
2023/12/27 02:26:42;;;;;;;8.57;2.43;;;4.50;99.90;;;;;;4962372;28;20239;-54
2023/12/27 02:29:07;;;;;;;5.93;1.33;;;4.50;99.90;;;;;;4954408;28;20631;-54
2023/12/27 02:31:33;;;;;;;9.47;1.40;;;4.40;99.90;;;;;;4941308;28;20198;-54
2023/12/27 02:33:59;;;;;;;3.67;1.20;;;4.30;99.90;;;;;;4944643;28;20612;-53
2023/12/27 02:36:24;;;;;;;5.43;1.60;;;4.40;99.90;;;;;;4934900;28;20211;-56
2023/12/27 02:38:50;;;;;;;8.00;1.70;;;4.20;99.90;;;;;;4937823;28;20205;-61
2023/12/27 02:41:15;;;;;;;10.63;1.93;;;4.50;99.90;;;;;;4942985;28;20205;-54
2023/12/27 02:43:40;;;;;;;4.33;1.00;;;4.70;99.90;;;;;;4939258;28;20201;-56
2023/12/27 02:46:06;;;;;;;5.60;2.50;;;5.00;99.90;;;;;;4936597;28;20676;-66
2023/12/27 02:48:31;;;;;;;10.40;2.53;;;4.80;99.90;;;;;;4942652;28;20233;-67
2023/12/27 02:50:57;;;;;;;8.67;1.70;;;4.60;99.90;;;;;;4936858;28;20209;-56
2023/12/27 02:53:23;;;;;;;12.27;2.63;;;4.50;99.90;;;;;;4931529;28;20225;-55
2023/12/27 02:55:49;;;;;;;6.97;2.17;;;4.40;99.90;;;;;;4931137;28;20197;-56
2023/12/27 02:58:14;;;;;;;5.00;1.20;;;4.20;99.90;;;;;;4936510;28;20688;-55
2023/12/27 03:00:41;;;;;;;3.50;1.13;;;4.20;99.90;;;;;;4935465;28;20273;-54
2023/12/27 03:03:07;;;;;;;8.57;1.57;;;4.20;99.90;;;;;;4942374;28;20231;-55
2023/12/27 03:05:32;;;;;;;9.43;1.87;;;4.10;99.90;;;;;;4935559;28;20222;-56
2023/12/27 03:07:58;;;;;;;7.47;1.63;;;4.10;99.90;;;;;;4938164;28;20226;-55
2023/12/27 03:10:23;;;;;;;4.73;2.50;;;4.10;99.90;;;;;;4932258;28;20752;-55
2023/12/27 03:12:49;;;;;;;6.07;1.70;;;4.10;99.90;;;;;;4937159;28;20212;-54
2023/12/27 03:15:14;;;;;;;6.57;1.70;;;4.10;99.90;;;;;;4937112;28;20209;-55
2023/12/27 03:17:40;;;;;;;6.00;2.27;;;4.10;99.90;;;;;;4931551;28;20932;-56
2023/12/27 03:20:06;;;;;;;6.83;1.43;;;4.10;99.90;;;;;;4943641;28;20503;-54
2023/12/27 03:22:32;;;;;;;5.87;1.20;;;4.10;99.90;;;;;;4938218;28;20578;-55
2023/12/27 03:24:57;;;;;;;10.93;2.23;;;4.00;99.90;;;;;;4933262;28;20214;-57
2023/12/27 03:27:23;;;;;;;4.80;1.90;;;4.00;99.90;;;;;;4953713;28;20714;-55
2023/12/27 03:29:48;;;;;;;1.97;1.27;;;4.00;99.90;;;;;;4930771;28;20212;-55
2023/12/27 03:32:14;;;;;;;12.57;2.07;;;4.00;99.90;;;;;;4934214;28;20245;-56
2023/12/27 03:34:39;;;;;;;10.47;1.73;;;4.10;99.90;;;;;;4930858;28;20611;-56
2023/12/27 03:37:05;;;;;;;7.83;2.00;;;4.00;99.90;;;;;;4933859;28;20281;-56
2023/12/27 03:39:30;;;;;;;7.43;1.97;;;3.90;99.90;;;;;;4929132;28;20284;-57
2023/12/27 03:41:56;;;;;;;9.77;1.30;;;3.90;99.90;;;;;;4940968;28;20218;-63
2023/12/27 03:44:21;;;;;;;9.83;1.93;;;3.90;99.90;;;;;;4935858;28;20207;-64
2023/12/27 03:46:47;;;;;;;3.30;2.00;;;3.90;99.90;;;;;;4922623;28;20226;-62
2023/12/27 03:49:15;;;;;;;9.17;1.63;;;3.90;99.90;;;;;;4928824;28;20194;-63
2023/12/27 03:51:40;;;;;;;9.63;2.20;;;3.90;99.90;;;;;;4929444;28;20388;-55
2023/12/27 03:54:05;;;;;;;5.50;1.70;;;3.90;99.90;;;;;;4934138;28;20831;-54
2023/12/27 03:56:31;;;;;;;9.37;2.13;;;3.90;99.90;;;;;;4943308;28;20203;-55
2023/12/27 03:58:56;;;;;;;4.77;1.47;;;3.90;99.90;;;;;;4931998;28;20264;-55
2023/12/27 04:01:22;;;;;;;4.73;1.40;;;3.80;99.90;;;;;;4928102;28;20767;-55
2023/12/27 04:03:48;;;;;;;6.33;1.60;;;3.90;99.90;;;;;;4935120;28;20233;-55
2023/12/27 04:06:18;;;;;;;5.77;1.40;;;3.90;99.90;;;;;;4931502;28;20541;-55
2023/12/27 04:08:44;;;;;;;10.97;2.67;;;3.90;99.90;;;;;;4924843;28;20203;-56
2023/12/27 04:11:10;;;;;;;7.40;1.83;;;3.90;99.90;;;;;;4942066;28;20194;-54
2023/12/27 04:13:35;;;;;;;5.03;1.50;;;3.80;99.90;;;;;;4930275;28;20212;-54
2023/12/27 04:16:01;;;;;;;6.37;2.03;;;3.80;99.90;;;;;;4933355;28;20217;-55
2023/12/27 04:18:26;;;;;;;8.40;1.97;;;3.80;99.90;;;;;;4934552;28;20575;-55
2023/12/27 04:20:52;;;;;;;6.33;2.00;;;3.80;99.90;;;;;;4943809;28;20211;-54
2023/12/27 04:23:17;;;;;;;9.37;1.83;;;3.80;99.90;;;;;;4933835;28;20235;-54
2023/12/27 04:25:44;;;;;;;6.23;1.53;;;3.80;99.90;;;;;;4939045;28;20611;-54
2023/12/27 04:28:09;;;;;;;5.50;1.57;;;3.90;99.90;;;;;;4931860;28;20325;-55
2023/12/27 04:30:35;;;;;;;11.17;2.80;;;3.90;99.90;;;;;;4937719;28;20203;-54
2023/12/27 04:33:00;;;;;;;4.43;1.67;;;3.80;99.90;;;;;;4930931;28;20237;-54
2023/12/27 04:35:26;;;;;;;5.07;1.63;;;3.80;99.90;;;;;;4930010;28;20209;-55
2023/12/27 04:37:51;;;;;;;11.67;1.90;;;3.80;99.90;;;;;;4930864;28;20210;-55
2023/12/27 04:40:16;;;;;;;3.67;1.47;;;3.80;99.90;;;;;;4927513;28;20187;-55
2023/12/27 04:42:42;;;;;;;4.17;1.87;;;3.80;99.90;;;;;;4926469;28;20194;-54
2023/12/27 04:45:08;;;;;;;8.10;1.57;;;3.80;99.90;;;;;;4932325;28;20186;-54
2023/12/27 04:47:33;;;;;;;3.03;2.43;;;3.90;99.90;;;;;;4941274;28;20244;-54
2023/12/27 04:49:59;;;;;;;3.57;1.03;;;3.80;99.90;;;;;;4930181;28;20210;-55
2023/12/27 04:52:24;;;;;;;4.07;1.33;;;3.80;99.90;;;;;;4935747;28;20316;-55
2023/12/27 04:54:50;;;;;;;6.93;1.50;;;3.90;99.90;;;;;;4932878;28;20216;-54
2023/12/27 04:57:15;;;;;;;6.77;1.50;;;3.70;99.90;;;;;;4939173;28;20194;-55
2023/12/27 04:59:41;;;;;;;12.33;1.87;;;3.70;99.90;;;;;;4948402;28;20257;-55
2023/12/27 05:02:06;;;;;;;12.70;2.33;;;3.70;99.90;;;;;;4933298;28;20518;-55
2023/12/27 05:04:32;;;;;;;10.03;1.80;;;3.80;99.90;;;;;;4929571;28;20201;-55
2023/12/27 05:06:57;;;;;;;9.57;1.50;;;3.90;99.90;;;;;;4932893;28;20745;-55
2023/12/27 05:09:23;;;;;;;7.33;1.77;;;3.80;99.90;;;;;;4930413;28;20862;-55
2023/12/27 05:11:49;;;;;;;4.93;1.53;;;3.80;99.90;;;;;;4934301;28;20509;-55
2023/12/27 05:14:16;;;;;;;8.33;1.50;;;3.90;99.90;;;;;;4932912;28;20314;-55
2023/12/27 05:16:42;;;;;;;3.67;1.10;;;4.00;99.90;;;;;;4933989;28;20237;-55
2023/12/27 05:19:07;;;;;;;4.90;1.43;;;4.10;99.90;;;;;;4929767;28;20287;-55
2023/12/27 05:21:33;;;;;;;4.90;1.07;;;4.10;99.90;;;;;;4927600;28;20313;-56
2023/12/27 05:23:58;;;;;;;10.27;2.03;;;4.10;99.90;;;;;;4930919;28;20198;-56
2023/12/27 05:26:24;;;;;;;10.53;1.97;;;4.10;99.90;;;;;;4934159;28;20259;-56
2023/12/27 05:28:50;;;;;;;6.80;2.30;;;4.10;99.90;;;;;;4928534;28;20211;-56
2023/12/27 05:31:15;;;;;;;9.53;1.47;;;4.00;99.90;;;;;;4929826;28;20681;-56
2023/12/27 05:33:41;;;;;;;11.50;3.00;;;4.00;99.90;;;;;;4927911;28;20311;-56
2023/12/27 05:36:06;;;;;;;8.00;1.80;;;4.00;99.90;;;;;;4928808;28;20217;-56
2023/12/27 05:38:32;;;;;;;4.70;1.80;;;3.90;99.90;;;;;;4929185;28;20198;-55
2023/12/27 05:40:58;;;;;;;3.73;1.57;;;3.80;99.90;;;;;;4929048;28;20213;-55
2023/12/27 05:43:23;;;;;;;9.20;2.07;;;3.80;99.90;;;;;;4931016;28;21099;-56
2023/12/27 05:45:49;;;;;;;4.97;2.00;;;3.70;99.90;;;;;;4934760;28;20252;-55
2023/12/27 05:48:14;;;;;;;4.30;1.43;;;3.70;99.90;;;;;;4927428;28;20218;-55
2023/12/27 05:50:40;;;;;;;7.73;1.73;;;3.60;99.90;;;;;;4931782;28;20214;-55
2023/12/27 05:53:05;;;;;;;9.10;2.40;;;3.70;99.90;;;;;;4932670;28;20209;-55
2023/12/27 05:55:30;;;;;;;8.93;1.53;;;3.90;99.90;;;;;;4944109;28;20673;-55
2023/12/27 05:57:56;;;;;;;7.37;1.40;;;3.70;99.90;;;;;;4937193;28;20209;-55
2023/12/27 06:00:21;;;;;;;5.97;1.50;;;3.60;99.90;;;;;;4939397;28;20233;-55
2023/12/27 06:02:47;;;;;;;6.03;1.70;;;3.60;99.90;;;;;;4937720;28;20202;-55
2023/12/27 06:05:13;;;;;;;9.57;1.60;;;3.50;99.90;;;;;;4934139;28;20210;-55
2023/12/27 06:07:38;;;;;;;6.40;1.60;;;3.40;99.90;;;;;;4942656;28;20235;-54
2023/12/27 06:10:05;;;;;;;5.20;1.27;;;3.50;99.90;;;;;;4936434;28;20213;-55
2023/12/27 06:12:31;;;;;;;4.77;1.53;;;3.70;99.90;;;;;;4939831;28;20210;-66
2023/12/27 06:14:56;;;;;;;4.80;1.53;;;3.50;99.90;;;;;;4938101;28;20208;-56
2023/12/27 06:17:22;;;;;;;6.70;1.73;;;3.50;99.90;;;;;;4939133;28;20257;-55
2023/12/27 06:19:47;;;;;;;5.83;1.87;;;3.50;99.90;;;;;;4944967;28;20607;-56
2023/12/27 06:22:13;;;;;;;7.27;1.73;;;3.60;99.90;;;;;;4941086;28;20255;-71
2023/12/27 06:24:38;;;;;;;7.40;1.57;;;3.70;99.90;;;;;;4930559;28;20728;-56
2023/12/27 06:27:06;;;;;;;11.87;1.87;;;3.80;99.90;;;;;;4936389;28;20300;-58
2023/12/27 06:29:32;;;;;;;7.30;1.27;;;3.90;99.90;;;;;;4932961;28;20218;-54
2023/12/27 06:31:58;;;;;;;7.53;1.47;;;3.90;99.90;;;;;;4935495;28;20212;-63
2023/12/27 06:34:23;;;;;;;2.10;1.50;;;3.70;99.90;;;;;;4961491;28;20198;-55
2023/12/27 06:36:51;;;;;;;6.70;1.73;;;3.80;99.90;;;;;;4961228;28;20212;-55
2023/12/27 06:39:16;;;;;;;6.60;2.00;;;3.60;99.90;;;;;;4945128;28;20328;-55
2023/12/27 06:41:42;;;;;;;9.83;2.27;;;3.40;99.90;;;;;;4964070;28;20397;-54
2023/12/27 06:44:07;;;;;;;10.40;2.17;;;3.40;99.90;;;;;;4950912;28;20207;-55
2023/12/27 06:46:33;;;;;;;6.37;1.70;;;3.50;99.90;;;;;;4941825;28;20268;-55
2023/12/27 06:48:59;;;;;;;4.80;2.27;;;3.40;99.90;;;;;;4952390;28;20213;-53
2023/12/27 06:51:24;;;;;;;7.67;1.93;;;3.50;99.90;;;;;;4937729;28;20213;-55
2023/12/27 06:53:50;;;;;;;9.23;1.67;;;3.40;99.90;;;;;;4960679;28;20249;-54
2023/12/27 06:56:16;;;;;;;4.10;1.90;;;3.50;99.90;;;;;;4941794;28;20194;-54
2023/12/27 06:58:41;;;;;;;9.37;2.20;;;3.50;99.90;;;;;;4966731;28;20306;-54
2023/12/27 07:01:07;;;;;;;5.27;2.00;;;3.50;99.90;;;;;;4934071;28;20220;-55
2023/12/27 07:03:32;;;;;;;6.00;1.70;;;3.50;99.90;;;;;;4959770;28;20966;-56
2023/12/27 07:05:58;;;;;;;5.67;1.47;;;3.60;99.90;;;;;;4943676;28;20672;-55
2023/12/27 07:08:23;;;;;;;5.17;1.50;;;3.60;99.90;;;;;;4946844;28;21108;-55
2023/12/27 07:10:49;;;;;;;6.13;2.07;;;3.60;99.90;;;;;;4943438;28;20676;-55
2023/12/27 07:13:14;;;;;;;7.43;0.97;;;3.70;99.90;;;;;;4957631;28;20201;-55
2023/12/27 07:15:40;;;;;;;9.87;1.77;;;3.80;99.90;;;;;;4954091;28;20228;-55
2023/12/27 07:18:06;;;;;;;6.03;1.87;;;3.70;99.90;;;;;;4957789;28;20267;-55
2023/12/27 07:20:31;;;;;;;4.10;1.80;;;3.70;99.90;;;;;;4942633;28;20212;-55
2023/12/27 07:22:57;;;;;;;7.63;2.27;;;3.60;99.90;;;;;;4948542;28;20210;-55
2023/12/27 07:25:22;;;;;;;15.60;3.07;;;3.60;99.90;;;;;;4945794;28;20213;-54
2023/12/27 07:27:48;;;;;;;5.50;1.90;;;3.70;99.90;;;;;;4950601;28;20225;-54
2023/12/27 07:30:14;;;;;;;4.80;1.80;;;3.50;99.90;;;;;;4985195;28;20816;-55
2023/12/27 07:32:39;;;;;;;8.13;1.67;;;3.50;99.90;;;;;;4990912;28;20203;-55
2023/12/27 07:35:05;;;;;;;8.07;1.97;;;3.70;99.90;;;;;;5027391;28;20195;-55
2023/12/27 07:37:31;;;;;;;5.07;1.93;;;3.80;99.90;;;;;;4982003;28;20722;-55
2023/12/27 07:39:56;;;;;;;7.33;1.67;;;3.70;99.90;;;;;;4993876;28;20197;-56
2023/12/27 07:42:22;;;;;;;9.93;2.10;;;3.80;99.90;;;;;;4982725;28;20293;-55
2023/12/27 07:44:47;;;;;;;6.70;1.53;;;3.80;99.90;;;;;;4979806;28;20186;-55
2023/12/27 07:47:13;;;;;;;11.07;2.60;;;3.80;99.90;;;;;;4985830;28;20256;-55
2023/12/27 07:49:39;;;;;;;4.60;2.03;;;3.90;99.90;;;;;;4989336;28;20230;-55
2023/12/27 07:52:04;;;;;;;3.93;0.93;;;3.80;99.90;;;;;;4963215;28;20210;-55
2023/12/27 07:54:31;;;;;;;12.80;1.93;;;3.70;99.90;;;;;;4998681;28;20183;-55
2023/12/27 07:56:57;;;;;;;5.77;1.43;;;3.70;99.90;;;;;;4958048;28;20202;-54
2023/12/27 07:59:23;;;;;;;6.83;2.37;;;3.70;99.90;;;;;;4987958;28;20239;-55
2023/12/27 08:01:48;;;;;;;3.10;1.03;;;3.80;99.90;;;;;;4951992;28;20684;-54
2023/12/27 08:04:14;;;;;;;8.10;1.20;;;3.90;99.90;;;;;;5043178;28;20241;-54
2023/12/27 08:06:39;;;;;;;5.17;1.93;;;3.90;99.90;;;;;;4988606;28;20200;-54
2023/12/27 08:09:05;;;;;;;7.03;3.10;;;3.90;99.90;;;;;;5014870;28;20235;-54
2023/12/27 08:11:30;;;;;;;4.23;1.50;;;3.70;99.90;;;;;;5018238;28;20199;-54
2023/12/27 08:13:56;;;;;;;4.57;1.40;;;3.60;99.90;;;;;;4984330;28;20189;-54
2023/12/27 08:16:21;;;;;;;9.07;1.80;;;3.60;99.90;;;;;;4962088;28;20591;-55
2023/12/27 08:18:47;;;;;;;7.80;1.90;;;3.70;99.90;;;;;;5016430;28;20327;-54
2023/12/27 08:21:13;;;;;;;7.47;1.83;;;3.70;99.90;;;;;;4989579;28;20204;-54
2023/12/27 08:23:38;;;;;;;4.13;1.30;;;3.60;99.90;;;;;;4949332;28;20222;-54
2023/12/27 08:26:06;;;;;;;9.07;1.83;;;3.60;99.90;;;;;;4971245;28;20198;-54
2023/12/27 08:28:33;;;;;;;13.73;2.00;;;3.70;99.90;;;;;;4972617;28;20342;-54
2023/12/27 08:30:59;;;;;;;5.60;0.93;;;3.90;99.90;;;;;;4978940;28;20727;-54
2023/12/27 08:33:24;;;;;;;2.83;1.57;;;4.00;99.90;;;;;;4970980;28;20216;-54
2023/12/27 08:35:50;;;;;;;17.07;2.20;;;4.00;99.90;;;;;;4970000;28;20212;-55
2023/12/27 08:38:16;;;;;;;3.83;2.07;;;4.00;99.90;;;;;;4963960;28;20281;-54
2023/12/27 08:40:41;;;;;;;4.87;1.80;;;3.90;99.90;;;;;;5013683;28;20271;-55
2023/12/27 08:43:07;;;;;;;6.57;2.10;;;4.00;99.90;;;;;;4973887;28;20692;-54
2023/12/27 08:45:32;;;;;;;7.30;2.10;;;4.00;99.90;;;;;;4986265;28;20197;-55
2023/12/27 08:47:58;;;;;;;9.33;2.03;;;4.00;99.90;;;;;;4956910;28;20902;-55
2023/12/27 08:50:23;;;;;;;5.77;1.83;;;3.80;99.90;;;;;;4956087;28;20186;-55
2023/12/27 08:52:49;;;;;;;5.13;2.17;;;3.80;99.90;;;;;;4946697;28;20238;-55
2023/12/27 08:55:14;;;;;;;10.43;2.20;;;3.70;99.90;;;;;;4958952;28;20200;-55
2023/12/27 08:57:40;;;;;;;6.80;1.63;;;3.60;99.90;;;;;;4965036;28;20230;-55
2023/12/27 09:00:13;;;;;;;5.13;1.70;;;3.60;99.90;;;;;;4960703;28;20234;-55
2023/12/27 09:02:38;;;;;;;8.20;2.20;;;3.70;99.90;;;;;;4936234;28;20207;-65
2023/12/27 09:05:05;;;;;;;4.60;1.87;;;3.90;99.90;;;;;;4963527;28;20195;-56
2023/12/27 09:07:31;;;;;;;8.20;2.30;;;3.70;99.90;;;;;;4988728;28;20225;-56
2023/12/27 09:09:57;;;;;;;12.00;2.20;;;3.70;99.90;;;;;;5011880;28;20188;-56
2023/12/27 09:12:23;;;;;;;6.80;3.00;;;3.70;99.90;;;;;;4986855;28;20199;-56
2023/12/27 09:14:48;;;;;;;5.00;1.67;;;3.70;99.90;;;;;;4985029;28;20220;-55
2023/12/27 09:17:15;;;;;;;8.43;2.80;;;3.70;99.90;;;;;;4945272;28;20213;-55
2023/12/27 09:19:41;;;;;;;14.33;2.60;;;3.80;99.90;;;;;;4936873;28;20206;-54
2023/12/27 09:22:07;;;;;;;8.70;2.10;;;3.90;99.90;;;;;;4933094;28;20219;-55
2023/12/27 09:24:33;;;;;;;9.97;1.90;;;3.90;99.90;;;;;;4951226;28;20219;-55
2023/12/27 09:26:58;;;;;;;12.27;2.60;;;4.00;99.90;;;;;;4938175;28;20226;-56
2023/12/27 09:29:24;;;;;;;3.37;1.63;;;4.10;99.90;;;;;;4955043;28;20203;-55
2023/12/27 09:31:49;;;;;;;7.97;2.57;;;4.10;99.90;;;;;;4928330;28;20575;-55
2023/12/27 09:34:15;;;;;;;6.10;2.30;;;4.20;99.90;;;;;;4932089;28;20734;-56
2023/12/27 09:36:41;;;;;;;5.57;2.00;;;4.60;99.90;;;;;;4947453;28;20603;-56
2023/12/27 09:39:06;;;;;;;7.83;2.03;;;4.70;99.90;;;;;;4930317;28;20691;-56
2023/12/27 09:41:32;;;;;;;10.13;2.03;;;4.80;99.90;;;;;;4932546;28;20206;-56
2023/12/27 09:43:59;;;;;;;8.93;2.00;;;4.90;99.90;;;;;;4934380;28;20205;-55
2023/12/27 09:46:28;;;;;;;7.97;1.80;;;5.00;99.90;;;;;;4940902;28;20233;-55
2023/12/27 09:48:54;;;;;;;8.37;2.50;;;5.10;99.90;;;;;;4940525;28;20631;-55
2023/12/27 09:51:23;;;;;;;8.33;2.77;;;4.90;99.90;;;;;;4929389;28;20700;-55
2023/12/27 09:53:50;;;;;;;4.27;3.30;;;4.80;99.90;;;;;;4933436;28;20210;-56
2023/12/27 09:56:16;;;;;;;8.33;2.20;;;4.80;99.90;;;;;;4940304;28;20199;-55
2023/12/27 09:58:42;;;;;;;5.83;2.10;;;5.10;99.90;;;;;;4953885;28;20227;-55
2023/12/27 10:01:09;;;;;;;6.33;2.40;;;5.10;99.90;;;;;;4930546;28;20237;-56
2023/12/27 10:03:38;;;;;;;9.07;2.27;;;5.00;99.90;;;;;;4946683;28;22791;-57
2023/12/27 10:06:32;;;;;;;6.23;2.60;;;5.00;99.90;;;;;;4936899;28;20237;-56
2023/12/27 10:08:58;;;;;;;4.93;2.17;;;5.20;99.90;;;;;;4935330;28;20203;-57
2023/12/27 10:11:24;;;;;;;8.10;2.17;;;5.20;99.90;;;;;;4943997;28;20257;-56
2023/12/27 10:13:50;;;;;;;6.70;2.40;;;5.30;99.90;;;;;;4941062;28;20546;-56
2023/12/27 10:16:17;;;;;;;8.20;1.93;;;5.30;99.90;;;;;;4940009;28;20205;-54
2023/12/27 10:18:46;;;;;;;9.90;2.03;;;5.60;99.90;;;;;;4944951;28;20198;-57
2023/12/27 10:21:12;;;;;;;11.63;2.53;;;5.70;99.90;;;;;;4932230;28;20218;-56
2023/12/27 10:23:37;;;;;;;5.80;1.67;;;5.90;99.90;;;;;;4933319;28;20572;-56
2023/12/27 10:26:03;;;;;;;7.40;1.80;;;6.10;99.90;;;;;;4943723;28;20300;-56
2023/12/27 10:28:28;;;;;;;12.03;2.43;;;6.30;99.90;;;;;;4934026;28;20288;-55
2023/12/27 10:30:54;;;;;;;6.37;1.93;;;6.30;99.90;;;;;;4927960;28;20202;-56
2023/12/27 10:33:20;;;;;;;14.57;2.37;;;6.20;99.90;;;;;;4932752;28;20218;-56
2023/12/27 10:35:47;;;;;;;8.37;1.97;;;6.20;99.90;;;;;;4933418;28;20613;-55
2023/12/27 10:38:12;;;;;;;6.87;2.10;;;6.50;99.90;;;;;;4926278;28;20312;-55
2023/12/27 10:40:39;;;;;;;3.73;1.87;;;6.50;99.90;;;;;;4938793;28;20278;-55
2023/12/27 10:43:05;;;;;;;3.70;1.83;;;6.70;99.90;;;;;;4930239;28;20218;-55
2023/12/27 10:45:31;;;;;;;7.30;1.93;;;6.70;99.90;;;;;;4935653;28;20622;-53
2023/12/27 10:47:59;;;;;;;6.10;1.77;;;6.60;99.90;;;;;;4933288;28;20217;-56
2023/12/27 10:50:29;;;;;;;4.07;2.27;;;6.60;99.90;;;;;;4927072;28;20230;-59
2023/12/27 10:53:08;;;;;;;11.27;2.47;;;6.60;99.90;;;;;;4932844;28;20221;-55
2023/12/27 10:55:35;;;;;;;7.23;2.73;;;6.70;99.90;;;;;;4946759;28;20194;-56
2023/12/27 10:58:05;;;;;;;7.70;1.90;;;6.50;99.90;;;;;;4940530;28;20210;-57
2023/12/27 11:00:31;;;;;;;6.90;1.87;;;6.80;99.90;;;;;;4945781;28;20234;-56
2023/12/27 11:03:00;;;;;;;6.87;2.30;;;7.10;99.90;;;;;;4947707;28;20675;-55
2023/12/27 11:05:29;;;;;;;7.80;2.60;;;6.90;99.90;;;;;;4953581;28;20202;-55
2023/12/27 11:07:56;;;;;;;4.57;1.67;;;7.10;99.90;;;;;;4937283;28;20221;-55
2023/12/27 11:10:23;;;;;;;7.17;2.23;;;7.40;99.90;;;;;;4931378;28;20245;-62
2023/12/27 11:12:50;;;;;;;5.33;2.33;;;7.50;99.90;;;;;;4935119;28;20206;-61
2023/12/27 11:15:18;;;;;;;6.50;2.17;;;7.70;99.90;;;;;;4934091;28;20213;-66
2023/12/27 11:17:45;;;;;;;6.13;1.97;;;7.80;99.90;;;;;;4931921;28;20775;-66
2023/12/27 11:20:12;;;;;;;7.73;3.70;;;7.90;99.90;;;;;;4928949;28;20723;-63
2023/12/27 11:22:39;;;;;;;5.27;2.17;;;8.00;99.90;;;;;;4929330;28;20291;-63
2023/12/27 11:25:05;;;;;;;6.43;2.20;;;8.00;99.90;;;;;;4949453;28;20310;-57
2023/12/27 11:27:31;;;;;;;6.70;1.77;;;7.90;99.90;;;;;;4949609;28;20241;-53
2023/12/27 11:29:58;;;;;;;8.77;2.47;;;7.90;99.90;;;;;;4957378;28;20237;-53
2023/12/27 11:32:27;;;;;;;6.30;2.00;;;7.90;99.90;;;;;;4946789;28;20734;-53
2023/12/27 11:34:54;;;;;;;10.23;1.83;;;7.80;99.90;;;;;;4936766;28;20205;-52
2023/12/27 11:37:22;;;;;;;7.93;1.97;;;8.10;99.90;;;;;;4943531;28;20209;-52
2023/12/27 11:39:50;;;;;;;10.97;2.37;;;8.30;99.90;;;;;;4942619;28;20651;-67
2023/12/27 11:42:16;;;;;;;12.10;2.07;;;8.20;99.90;;;;;;4942720;28;20208;-53
2023/12/27 11:44:51;;;;;;;5.73;1.70;;;8.10;99.90;;;;;;4934818;28;20264;-53
2023/12/27 11:47:19;;;;;;;4.07;2.70;;;8.00;99.90;;;;;;4939578;28;20280;-53
2023/12/27 11:50:09;;;;;;;10.50;2.60;;;8.20;99.90;;;;;;4939004;28;20209;-53
2023/12/27 11:52:41;;;;;;;5.63;1.67;;;8.00;99.90;;;;;;4957446;28;20241;-54
2023/12/27 11:55:18;;;;;;;6.17;2.03;;;7.90;99.90;;;;;;4943877;28;20653;-54
2023/12/27 11:57:43;;;;;;;10.43;1.83;;;8.10;99.90;;;;;;4941682;28;20288;-55
2023/12/27 12:00:13;;;;;;;4.30;2.30;;;8.40;99.90;;;;;;4935328;28;20309;-55
2023/12/27 12:02:50;;;;;;;5.60;2.33;;;8.30;99.90;;;;;;4937582;28;20202;-53
2023/12/27 12:05:57;;;;;;;9.00;3.47;;;8.60;99.90;;;;;;4930122;28;20226;-53
2023/12/27 12:08:44;;;;;;;7.23;2.27;;;8.80;99.90;;;;;;4942711;28;20232;-54
2023/12/27 12:11:14;;;;;;;7.87;2.63;;;8.70;99.90;;;;;;4930659;28;20202;-53
2023/12/27 12:13:40;;;;;;;9.47;2.40;;;8.80;99.90;;;;;;4934590;28;20951;-53
2023/12/27 12:16:06;;;;;;;10.17;2.60;;;8.80;99.90;;;;;;4935332;28;20764;-54
2023/12/27 12:18:39;;;;;;;7.60;2.30;;;8.80;99.90;;;;;;4941975;28;20282;-56
2023/12/27 12:21:05;;;;;;;7.33;3.53;;;8.80;99.90;;;;;;4929949;28;20205;-60
2023/12/27 12:23:31;;;;;;;6.00;2.60;;;8.80;99.90;;;;;;4952007;28;20854;-58
2023/12/27 12:26:01;;;;;;;12.13;2.63;;;8.80;99.90;;;;;;4941951;28;20274;-53
2023/12/27 12:28:30;;;;;;;5.23;1.87;;;8.60;99.90;;;;;;4929852;28;20222;-55
2023/12/27 12:30:57;;;;;;;7.17;2.77;;;8.70;99.90;;;;;;4937492;28;20254;-53
2023/12/27 12:33:24;;;;;;;8.13;2.57;;;8.70;99.90;;;;;;4932608;28;20230;-54
2023/12/27 12:38:17;;;;;;;6.07;2.80;;;8.40;99.90;;;;;;4926873;23;20235;-53
2023/12/27 12:40:44;;;;;;;8.87;2.80;;;8.20;99.90;;;;;;4951049;28;20209;-53
2023/12/27 12:43:10;;;;;;;6.13;2.23;;;8.20;99.90;;;;;;4945830;28;20363;-54
2023/12/27 12:45:36;;;;;;;7.77;2.57;;;8.30;99.90;;;;;;4952286;28;20509;-54
2023/12/27 12:48:02;;;;;;;4.60;2.33;;;8.20;99.90;;;;;;4958707;28;20221;-59
2023/12/27 12:50:28;;;;;;;3.90;2.00;;;8.10;99.90;;;;;;4951041;28;20370;-64
2023/12/27 12:52:54;;;;;;;6.90;2.60;;;8.00;99.90;;;;;;4963418;28;20225;-56